Time;durP1;ratioP1;P1;durP2;ratioP2;P2;SDS_P1;SDS_P2;PMS_P1;PMS_P2;Temp;Humidity;BMP_temperature;BMP_pressure;BME280_temperature;BME280_humidity;BME280_pressure;Samples;Min_cycle;Max_cycle;Signal;HPM_P1;HPM_P2
2020/12/02 00:00:16;;;;;;;17.00;12.60;;;;;7.60;101530.00;;;;10342390;28;20290;-81
2020/12/02 00:05:20;;;;;;;20.53;13.83;;;;;7.60;101528.00;;;;10362251;28;20219;-80
2020/12/02 00:10:24;;;;;;;19.73;13.00;;;;;7.60;101524.00;;;;10343959;28;20717;-81
2020/12/02 00:15:27;;;;;;;20.07;13.20;;;;;7.60;101523.00;;;;10353374;28;20322;-81
2020/12/02 00:20:29;;;;;;;22.80;13.73;;;;;7.60;101529.00;;;;10340029;28;20200;-81
2020/12/02 00:25:31;;;;;;;19.83;13.67;;;;;7.50;101516.00;;;;10344769;28;20218;-81
2020/12/02 00:30:34;;;;;;;23.93;14.47;;;;;7.50;101514.00;;;;10348666;28;20219;-81
2020/12/02 00:35:37;;;;;;;21.23;13.93;;;;;7.50;101510.00;;;;10367490;28;20677;-81
2020/12/02 00:40:44;;;;;;;20.50;14.13;;;;;7.50;101520.00;;;;10362504;28;20608;-81
2020/12/02 00:45:46;;;;;;;20.37;13.07;;;;;7.50;101507.00;;;;10352918;28;20257;-81
2020/12/02 00:50:49;;;;;;;21.33;14.00;;;;;7.50;101505.00;;;;10352401;28;20646;-81
2020/12/02 00:55:52;;;;;;;27.03;14.27;;;;;7.50;101513.00;;;;10347249;28;20250;-81
2020/12/02 01:00:56;;;;;;;19.67;13.73;;;;;7.50;101503.00;;;;10343084;28;20297;-81
2020/12/02 01:05:59;;;;;;;17.77;12.67;;;;;7.50;101508.00;;;;10335994;28;20219;-81
2020/12/02 01:11:14;;;;;;;20.63;13.93;;;;;7.50;101506.00;;;;10344153;28;20274;-80
2020/12/02 01:16:21;;;;;;;22.40;14.20;;;;;7.50;101509.00;;;;10327880;28;20231;-79
2020/12/02 01:22:01;;;;;;;21.33;13.97;;;;;7.50;101506.00;;;;10344342;28;20199;-80
2020/12/02 01:27:28;;;;;;;21.90;14.63;;;;;7.50;101505.00;;;;10324493;28;20258;-81
2020/12/02 01:32:30;;;;;;;19.90;13.67;;;;;7.50;101506.00;;;;10330912;28;20238;-81
2020/12/02 01:37:36;;;;;;;21.97;14.20;;;;;7.40;101513.00;;;;10321903;28;20258;-81
2020/12/02 01:42:39;;;;;;;26.83;15.20;;;;;7.40;101520.00;;;;10312081;28;20283;-81
2020/12/02 01:48:01;;;;;;;31.33;15.43;;;;;7.40;101507.00;;;;10316984;28;20630;-81
2020/12/02 01:53:11;;;;;;;20.60;13.57;;;;;7.40;101514.00;;;;10324757;28;20205;-82
2020/12/02 01:58:43;;;;;;;21.50;13.97;;;;;7.40;101520.00;;;;10335242;28;20233;-81
2020/12/02 02:03:47;;;;;;;22.17;13.97;;;;;7.40;101524.00;;;;10334401;28;20267;-81
2020/12/02 02:08:49;;;;;;;23.17;14.30;;;;;7.40;101515.00;;;;10348019;28;20230;-80
2020/12/02 02:13:57;;;;;;;18.87;13.70;;;;;7.40;101529.00;;;;10346064;28;20223;-81
2020/12/02 02:19:00;;;;;;;22.83;14.90;;;;;7.40;101528.00;;;;10347610;28;20624;-81
2020/12/02 02:24:03;;;;;;;18.97;14.03;;;;;7.40;101522.00;;;;10344565;28;20207;-81
2020/12/02 02:29:26;;;;;;;23.13;14.70;;;;;7.40;101518.00;;;;10363525;28;20232;-81
2020/12/02 02:34:30;;;;;;;20.47;14.00;;;;;7.40;101516.00;;;;10366232;28;20250;-81
2020/12/02 02:39:33;;;;;;;24.03;15.43;;;;;7.40;101512.00;;;;10361933;28;20222;-81
2020/12/02 02:44:35;;;;;;;20.37;14.93;;;;;7.40;101517.00;;;;10390992;28;20235;-81
2020/12/02 02:49:37;;;;;;;24.80;15.00;;;;;7.40;101519.00;;;;10380117;28;20287;-81
2020/12/02 02:54:39;;;;;;;21.47;14.67;;;;;7.40;101515.00;;;;10361579;28;20233;-82
2020/12/02 02:59:41;;;;;;;22.03;15.07;;;;;7.30;101510.00;;;;10367183;28;20231;-81
2020/12/02 03:04:43;;;;;;;21.50;14.17;;;;;7.30;101506.00;;;;10388461;28;20195;-81
2020/12/02 03:09:45;;;;;;;24.40;14.90;;;;;7.40;101509.00;;;;10346114;28;20302;-82
2020/12/02 03:14:48;;;;;;;24.63;15.10;;;;;7.30;101511.00;;;;10361905;28;20745;-81
2020/12/02 03:20:15;;;;;;;20.90;14.40;;;;;7.30;101496.00;;;;10354109;28;20289;-81
2020/12/02 03:25:27;;;;;;;21.40;14.93;;;;;7.30;101494.00;;;;10379798;28;20303;-82
2020/12/02 03:30:29;;;;;;;24.37;14.63;;;;;7.30;101493.00;;;;10368506;28;20238;-81
2020/12/02 03:35:31;;;;;;;23.40;14.17;;;;;7.30;101492.00;;;;10338408;28;20227;-81
2020/12/02 03:40:34;;;;;;;26.27;15.57;;;;;7.30;101490.00;;;;10332124;28;20219;-81
2020/12/02 03:45:41;;;;;;;22.00;13.83;;;;;7.20;101476.00;;;;10383915;28;20341;-81
2020/12/02 03:50:44;;;;;;;19.13;14.47;;;;;7.20;101472.00;;;;10332246;28;20238;-81
2020/12/02 03:55:48;;;;;;;20.57;15.07;;;;;7.20;101477.00;;;;10369841;28;20223;-82
2020/12/02 04:00:50;;;;;;;19.17;14.17;;;;;7.20;101470.00;;;;10353576;28;20194;-81
2020/12/02 04:05:52;;;;;;;22.27;15.60;;;;;7.10;101463.00;;;;10370278;28;20543;-81
2020/12/02 04:10:54;;;;;;;19.00;13.20;;;;;7.10;101470.00;;;;10353621;28;20294;-81
2020/12/02 04:15:56;;;;;;;22.97;14.23;;;;;7.10;101467.00;;;;10343452;28;20321;-81
2020/12/02 04:20:59;;;;;;;21.20;14.83;;;;;7.00;101466.00;;;;10339226;28;20658;-81
2020/12/02 04:26:01;;;;;;;19.97;14.73;;;;;7.00;101465.00;;;;10343269;28;20231;-81
2020/12/02 04:31:03;;;;;;;23.33;15.10;;;;;7.00;101460.00;;;;10353614;28;20250;-82
2020/12/02 04:36:06;;;;;;;23.50;14.37;;;;;7.00;101473.00;;;;10339694;28;20339;-82
2020/12/02 04:41:17;;;;;;;22.77;15.33;;;;;7.00;101464.00;;;;10347452;28;20188;-82
2020/12/02 04:46:25;;;;;;;22.83;14.53;;;;;7.00;101459.00;;;;10331791;28;20277;-81
2020/12/02 04:51:29;;;;;;;21.27;14.70;;;;;7.00;101454.00;;;;10337489;28;20199;-81
2020/12/02 04:56:31;;;;;;;21.83;14.40;;;;;7.00;101449.00;;;;10366809;28;20743;-82
2020/12/02 05:01:45;;;;;;;19.33;13.50;;;;;7.00;101457.00;;;;10344878;28;20227;-81
2020/12/02 05:07:04;;;;;;;22.73;14.77;;;;;6.90;101452.00;;;;10352298;28;20242;-81
2020/12/02 05:12:20;;;;;;;20.43;14.63;;;;;6.90;101453.00;;;;10364863;28;20207;-81
2020/12/02 05:17:25;;;;;;;21.47;15.03;;;;;6.90;101451.00;;;;10366035;28;20237;-80
2020/12/02 05:22:27;;;;;;;23.93;15.10;;;;;6.90;101445.00;;;;10361731;28;20427;-81
2020/12/02 05:27:34;;;;;;;22.57;15.77;;;;;6.90;101442.00;;;;10351130;28;20239;-82
2020/12/02 05:32:36;;;;;;;20.43;15.17;;;;;6.90;101440.00;;;;10376669;28;20190;-81
2020/12/02 05:37:48;;;;;;;23.83;16.50;;;;;6.90;101434.00;;;;10332769;28;20265;-80
2020/12/02 05:43:01;;;;;;;22.00;15.90;;;;;6.90;101431.00;;;;10347215;28;20195;-81
2020/12/02 05:48:08;;;;;;;24.63;15.43;;;;;6.80;101435.00;;;;10360034;28;20250;-82
2020/12/02 05:53:48;;;;;;;22.87;16.27;;;;;6.80;101430.00;;;;10329789;28;20207;-80
2020/12/02 05:58:50;;;;;;;25.67;17.90;;;;;6.80;101436.00;;;;10316104;28;20222;-82
2020/12/02 06:03:56;;;;;;;24.60;17.57;;;;;6.80;101431.00;;;;10344454;28;20207;-81
2020/12/02 06:08:59;;;;;;;26.00;17.97;;;;;6.80;101422.00;;;;10351266;28;20715;-81
2020/12/02 06:14:39;;;;;;;26.13;17.03;;;;;6.80;101416.00;;;;10366867;28;20259;-81
2020/12/02 06:19:50;;;;;;;26.90;18.20;;;;;6.80;101416.00;;;;10329260;28;20226;-81
2020/12/02 06:24:52;;;;;;;25.97;18.27;;;;;6.80;101414.00;;;;10354984;28;20562;-81
2020/12/02 06:30:04;;;;;;;25.87;17.53;;;;;6.70;101409.00;;;;10357484;28;20210;-81
2020/12/02 06:35:21;;;;;;;28.20;17.83;;;;;6.70;101405.00;;;;10351981;28;20244;-80
2020/12/02 06:40:24;;;;;;;28.80;17.90;;;;;6.70;101399.00;;;;10375445;28;20294;-80
2020/12/02 06:45:35;;;;;;;30.83;18.93;;;;;6.70;101396.00;;;;10345617;28;20699;-81
2020/12/02 06:50:38;;;;;;;29.43;18.50;;;;;6.70;101401.00;;;;10353815;28;20199;-80
2020/12/02 06:55:40;;;;;;;28.10;17.50;;;;;6.70;101402.00;;;;10350526;28;20654;-81
2020/12/02 07:00:51;;;;;;;34.63;19.50;;;;;6.70;101396.00;;;;10351730;28;20210;-81
2020/12/02 07:06:28;;;;;;;30.57;20.43;;;;;6.70;101401.00;;;;10348523;28;20974;-82
2020/12/02 07:11:31;;;;;;;33.77;20.90;;;;;6.70;101396.00;;;;10363008;28;20234;-82
2020/12/02 07:16:35;;;;;;;28.00;18.10;;;;;6.70;101407.00;;;;10335574;28;20238;-82
2020/12/02 07:21:51;;;;;;;33.10;19.90;;;;;6.70;101404.00;;;;10350437;28;20203;-82
2020/12/02 07:26:55;;;;;;;31.67;19.30;;;;;6.70;101405.00;;;;10348256;28;20302;-81
2020/12/02 07:32:00;;;;;;;34.60;20.63;;;;;6.70;101407.00;;;;10330414;28;20205;-81
2020/12/02 07:37:04;;;;;;;30.07;19.57;;;;;6.80;101407.00;;;;10340293;28;20366;-82
2020/12/02 07:42:19;;;;;;;31.07;19.87;;;;;6.80;101410.00;;;;10356439;28;20301;-81
2020/12/02 07:47:21;;;;;;;32.70;20.40;;;;;6.80;101402.00;;;;10333860;28;20226;-81
2020/12/02 07:52:29;;;;;;;32.17;19.80;;;;;6.80;101397.00;;;;10349238;28;20282;-81
2020/12/02 07:57:33;;;;;;;35.13;19.53;;;;;6.90;101390.00;;;;10331046;28;20305;-81
2020/12/02 08:02:40;;;;;;;31.70;18.87;;;;;6.90;101394.00;;;;10333362;28;20290;-82
2020/12/02 08:08:02;;;;;;;37.30;20.67;;;;;6.80;101386.00;;;;10327484;28;20226;-81
2020/12/02 08:13:18;;;;;;;36.23;20.10;;;;;6.80;101391.00;;;;10330108;28;20301;-81
2020/12/02 08:18:23;;;;;;;37.10;20.47;;;;;6.90;101389.00;;;;10348010;28;20359;-81
2020/12/02 08:23:32;;;;;;;36.40;20.97;;;;;6.90;101389.00;;;;11040582;23;20251;-93
2020/12/02 08:36:02;;;;;;;38.03;20.93;;;;;6.90;101381.00;;;;10288752;22;20363;-92
2020/12/02 08:41:17;;;;;;;37.53;20.80;;;;;7.00;101378.00;;;;10408711;28;20667;-93
2020/12/02 08:46:28;;;;;;;44.73;23.90;;;;;7.00;101368.00;;;;10388010;28;20202;-92
2020/12/02 08:51:35;;;;;;;41.90;22.70;;;;;7.00;101380.00;;;;10379754;28;20206;-93
2020/12/02 08:56:43;;;;;;;47.97;23.17;;;;;7.00;101384.00;;;;10390904;28;20221;-92
2020/12/02 09:01:49;;;;;;;37.57;21.53;;;;;7.10;101367.00;;;;10404821;28;20730;-91
2020/12/02 09:06:52;;;;;;;39.40;22.27;;;;;7.10;101356.00;;;;10407482;28;20338;-93
2020/12/02 09:11:58;;;;;;;38.10;21.57;;;;;7.10;101362.00;;;;10403126;28;20194;-89
2020/12/02 09:17:02;;;;;;;40.13;22.13;;;;;7.20;101348.00;;;;10394590;28;20229;-93
2020/12/02 09:22:35;;;;;;;38.20;22.23;;;;;7.30;101350.00;;;;10416928;28;20676;-92
2020/12/02 09:27:45;;;;;;;40.60;22.87;;;;;7.30;101358.00;;;;10384224;28;20205;-94
2020/12/02 09:47:08;;;;;;;36.30;21.10;;;;;7.50;101339.00;;;;10165201;29;22295;-94
2020/12/02 16:45:29;;;;;;;46.60;25.73;;;;;6.20;100890.00;;;;10143088;29;20231;-91
2020/12/02 17:12:38;;;;;;;;;;;;;;;;;;;;;
2020/12/02 18:11:44;;;;;;;49.00;26.97;;;;;6.70;100799.00;;;;10228770;29;20216;-91
2020/12/02 18:16:54;;;;;;;48.80;27.23;;;;;6.70;100797.00;;;;10187039;29;20242;-91
2020/12/02 19:38:34;;;;;;;;;;;;;;;;;;;;;
2020/12/02 19:45:08;;;;;;;23.93;13.83;;;;;6.80;100716.00;;;;10043666;29;20205;-92
2020/12/02 21:47:34;;;;;;;28.37;11.90;;;;;6.40;100575.00;;;;10134344;29;20751;-76
2020/12/02 21:53:33;;;;;;;24.97;11.60;;;;;6.40;100567.00;;;;10134514;29;20211;-77
2020/12/02 21:59:00;;;;;;;28.30;13.57;;;;;6.40;100561.00;;;;10173959;29;20226;-77
2020/12/02 22:04:35;;;;;;;27.47;13.40;;;;;6.40;100558.00;;;;10159004;29;20328;-78
2020/12/02 22:09:56;;;;;;;29.23;16.53;;;;;6.40;100542.00;;;;10152372;29;20673;-77
2020/12/02 22:15:04;;;;;;;40.50;17.63;;;;;6.40;100539.00;;;;10153368;29;20234;-78
2020/12/02 22:20:25;;;;;;;33.00;17.00;;;;;6.50;100528.00;;;;10161533;29;20222;-78
2020/12/02 22:25:33;;;;;;;34.30;17.30;;;;;6.50;100539.00;;;;10158036;29;20234;-78
2020/12/02 22:30:35;;;;;;;33.57;17.93;;;;;6.50;100544.00;;;;10171705;29;20286;-78
2020/12/02 22:35:49;;;;;;;32.40;18.10;;;;;6.50;100537.00;;;;10169229;29;20322;-76
2020/12/02 22:41:07;;;;;;;30.97;16.40;;;;;6.40;100538.00;;;;10160169;29;20660;-78
2020/12/02 22:46:26;;;;;;;33.40;17.13;;;;;6.40;100545.00;;;;10184899;29;20205;-78
2020/12/02 22:51:29;;;;;;;26.47;15.80;;;;;6.40;100525.00;;;;10144890;29;20305;-84
2020/12/02 22:56:32;;;;;;;31.47;17.67;;;;;6.30;100521.00;;;;10150186;29;20807;-87
2020/12/02 23:01:34;;;;;;;33.30;17.73;;;;;6.30;100508.00;;;;10153976;28;20282;-79
2020/12/02 23:06:57;;;;;;;30.77;15.53;;;;;6.30;100510.00;;;;10182990;29;20274;-82
2020/12/02 23:12:09;;;;;;;35.97;15.90;;;;;6.30;100501.00;;;;10128891;29;20684;-77
2020/12/02 23:17:17;;;;;;;30.40;14.97;;;;;6.30;100494.00;;;;10155336;29;20253;-78
2020/12/02 23:22:19;;;;;;;28.50;15.73;;;;;6.30;100492.00;;;;10138672;29;20276;-84
2020/12/02 23:27:43;;;;;;;30.70;15.57;;;;;6.30;100484.00;;;;10161970;29;20209;-78
2020/12/02 23:33:32;;;;;;;29.30;15.80;;;;;6.30;100470.00;;;;10146676;29;20717;-79
2020/12/02 23:38:48;;;;;;;25.53;15.87;;;;;6.30;100453.00;;;;10169133;29;20230;-84
2020/12/02 23:44:16;;;;;;;27.77;14.43;;;;;6.30;100447.00;;;;10144590;29;20313;-78
2020/12/02 23:49:43;;;;;;;27.20;14.63;;;;;6.30;100443.00;;;;10145588;29;20649;-77
2020/12/02 23:54:45;;;;;;;23.53;13.50;;;;;6.30;100426.00;;;;10160068;29;20238;-77
2020/12/02 23:59:47;;;;;;;29.50;14.50;;;;;6.30;100428.00;;;;10139740;29;20625;-79
